Time;durP1;ratioP1;P1;durP2;ratioP2;P2;SDS_P1;SDS_P2;PMS_P1;PMS_P2;Temp;Humidity;BMP_temperature;BMP_pressure;BME280_temperature;BME280_humidity;BME280_pressure;Samples;Min_cycle;Max_cycle;Signal;HPM_P1;HPM_P2
2023/06/12 00:02:08;;;;;;;2.67;2.00;;;;;;;;;;12883550;23;20028;-89
2023/06/12 00:07:13;;;;;;;1.98;1.77;;;;;;;;;;12882539;22;20039;-91
2023/06/12 00:12:16;;;;;;;2.80;1.88;;;;;;;;;;12911078;23;20222;-91
2023/06/12 00:17:20;;;;;;;4.30;2.22;;;;;;;;;;12881611;23;20044;-90
2023/06/12 00:22:25;;;;;;;2.53;2.03;;;;;;;;;;12882479;23;20128;-89
2023/06/12 00:27:28;;;;;;;2.95;2.30;;;;;;;;;;12882344;23;20017;-89
2023/06/12 00:32:32;;;;;;;2.55;2.30;;;;;;;;;;12882027;23;20028;-88
2023/06/12 00:37:37;;;;;;;3.78;1.90;;;;;;;;;;12906852;22;20020;-88
2023/06/12 00:42:45;;;;;;;2.67;2.10;;;;;;;;;;12882080;23;20032;-88
2023/06/12 00:47:53;;;;;;;3.08;2.05;;;;;;;;;;12881830;23;20051;-88
2023/06/12 00:52:59;;;;;;;6.03;2.63;;;;;;;;;;12882152;23;20020;-89
2023/06/12 00:58:05;;;;;;;3.35;2.08;;;;;;;;;;12882097;23;20016;-89
2023/06/12 01:03:11;;;;;;;2.33;2.13;;;;;;;;;;12881975;23;20039;-90
2023/06/12 01:08:22;;;;;;;;;;;;;;;;;;12885129;23;20318;-90
2023/06/12 01:13:33;;;;;;;2.40;2.20;;;;;;;;;;12886543;23;20352;-90
2023/06/12 01:18:36;;;;;;;3.83;2.10;;;;;;;;;;12885250;23;20020;-89
2023/06/12 01:24:01;;;;;;;2.38;2.15;;;;;;;;;;12885099;23;20415;-89
2023/06/12 01:29:39;;;;;;;2.30;2.03;;;;;;;;;;12884707;23;20588;-89
2023/06/12 01:34:51;;;;;;;2.22;1.98;;;;;;;;;;12878106;22;20055;-89
2023/06/12 01:39:59;;;;;;;2.83;2.27;;;;;;;;;;12909834;23;20404;-89
2023/06/12 01:45:04;;;;;;;3.75;2.58;;;;;;;;;;12883107;22;20111;-89
2023/06/12 01:50:13;;;;;;;2.30;1.80;;;;;;;;;;12877007;23;20024;-88
2023/06/12 01:55:19;;;;;;;3.22;2.33;;;;;;;;;;12883033;22;20143;-89
2023/06/12 02:00:23;;;;;;;2.60;1.90;;;;;;;;;;12883562;23;20024;-88
2023/06/12 02:05:31;;;;;;;3.35;2.60;;;;;;;;;;12907493;22;20024;-89
2023/06/12 02:10:34;;;;;;;3.10;2.50;;;;;;;;;;12883631;23;20030;-89
2023/06/12 02:15:39;;;;;;;2.33;2.13;;;;;;;;;;12906481;22;20050;-89
2023/06/12 02:20:44;;;;;;;2.88;2.10;;;;;;;;;;12882445;23;20031;-88
2023/06/12 02:25:47;;;;;;;2.42;2.08;;;;;;;;;;12882283;22;20347;-89
2023/06/12 02:30:51;;;;;;;3.13;2.22;;;;;;;;;;12882768;23;20078;-89
2023/06/12 02:35:56;;;;;;;2.40;2.10;;;;;;;;;;12881515;22;20024;-89
2023/06/12 02:41:00;;;;;;;4.47;2.60;;;;;;;;;;12880885;23;20056;-89
2023/06/12 02:46:04;;;;;;;3.33;2.38;;;;;;;;;;12881097;22;20028;-89
2023/06/12 02:51:09;;;;;;;2.60;2.00;;;;;;;;;;12881584;23;20063;-89
2023/06/12 02:56:13;;;;;;;2.58;2.13;;;;;;;;;;12881563;22;20035;-89
2023/06/12 03:01:16;;;;;;;2.75;2.08;;;;;;;;;;12853962;23;20024;-88
2023/06/12 03:06:26;;;;;;;3.45;2.47;;;;;;;;;;12869837;22;20467;-88
2023/06/12 03:11:30;;;;;;;2.88;2.45;;;;;;;;;;12882730;23;20070;-89
2023/06/12 03:16:34;;;;;;;2.83;2.22;;;;;;;;;;12880748;22;20024;-89
2023/06/12 03:21:39;;;;;;;3.35;2.30;;;;;;;;;;12882670;23;20020;-90
2023/06/12 03:26:43;;;;;;;3.00;2.60;;;;;;;;;;12881506;22;20034;-90
2023/06/12 03:31:47;;;;;;;3.03;2.50;;;;;;;;;;12881230;23;20020;-90
2023/06/12 03:36:52;;;;;;;2.85;2.33;;;;;;;;;;12881749;22;20035;-90
2023/06/12 03:42:00;;;;;;;2.78;2.20;;;;;;;;;;12883678;23;20078;-90
2023/06/12 03:47:21;;;;;;;2.80;2.30;;;;;;;;;;12877526;23;20090;-90
2023/06/12 03:52:27;;;;;;;4.28;2.08;;;;;;;;;;12883549;23;20020;-90
2023/06/12 03:57:31;;;;;;;3.50;2.35;;;;;;;;;;12883409;23;20408;-91
2023/06/12 04:02:36;;;;;;;3.10;2.38;;;;;;;;;;12883041;23;20622;-91
2023/06/12 04:07:41;;;;;;;2.80;2.13;;;;;;;;;;12880946;23;20115;-90
2023/06/12 04:12:45;;;;;;;2.80;2.22;;;;;;;;;;12883415;23;20575;-90
2023/06/12 04:17:48;;;;;;;3.28;2.55;;;;;;;;;;12880795;23;20024;-90
2023/06/12 04:22:56;;;;;;;3.03;2.30;;;;;;;;;;12882941;23;20082;-90
2023/06/12 04:28:00;;;;;;;2.22;1.98;;;;;;;;;;12883707;23;20024;-91
2023/06/12 04:33:04;;;;;;;2.88;2.20;;;;;;;;;;12883797;23;20024;-91
2023/06/12 04:38:09;;;;;;;3.10;2.30;;;;;;;;;;12883900;23;20024;-90
2023/06/12 04:43:13;;;;;;;3.25;2.15;;;;;;;;;;12886641;23;20043;-91
2023/06/12 04:48:17;;;;;;;2.90;2.10;;;;;;;;;;12885699;23;20451;-90
2023/06/12 04:53:27;;;;;;;2.38;2.17;;;;;;;;;;12888184;23;20032;-91
2023/06/12 04:58:32;;;;;;;3.30;2.55;;;;;;;;;;12887399;23;20406;-91
2023/06/12 05:03:37;;;;;;;3.72;2.25;;;;;;;;;;12887047;23;20024;-90
2023/06/12 05:08:42;;;;;;;5.95;2.22;;;;;;;;;;12887743;23;20020;-91
2023/06/12 05:13:46;;;;;;;2.38;1.92;;;;;;;;;;12887891;23;20090;-90
2023/06/12 05:18:50;;;;;;;3.22;2.17;;;;;;;;;;12887921;23;20040;-90
2023/06/12 05:23:55;;;;;;;2.92;2.00;;;;;;;;;;12887573;23;20027;-90
2023/06/12 05:28:59;;;;;;;2.65;2.10;;;;;;;;;;12887494;23;20020;-91
2023/06/12 05:34:03;;;;;;;2.90;1.90;;;;;;;;;;12887791;23;20411;-91
2023/06/12 05:39:10;;;;;;;2.17;1.83;;;;;;;;;;12886825;23;20040;-91
2023/06/12 05:44:17;;;;;;;2.70;2.00;;;;;;;;;;12891306;23;20020;-92
2023/06/12 05:49:20;;;;;;;3.10;2.15;;;;;;;;;;12886919;23;20030;-91
2023/06/12 05:54:26;;;;;;;3.33;2.17;;;;;;;;;;12886904;22;20059;-91
2023/06/12 05:59:31;;;;;;;4.30;2.22;;;;;;;;;;12886580;23;20020;-90
2023/06/12 06:04:36;;;;;;;9.30;2.97;;;;;;;;;;12883532;22;20047;-91
2023/06/12 06:09:42;;;;;;;8.13;3.95;;;;;;;;;;12888194;23;20024;-90
2023/06/12 06:14:46;;;;;;;10.33;3.57;;;;;;;;;;12887609;22;20028;-92
2023/06/12 06:19:49;;;;;;;8.70;3.22;;;;;;;;;;12911390;23;20078;-90
2023/06/12 06:24:56;;;;;;;6.22;3.60;;;;;;;;;;12887433;22;20406;-90
2023/06/12 06:30:00;;;;;;;13.43;3.92;;;;;;;;;;12887844;23;20047;-91
2023/06/12 06:35:06;;;;;;;6.50;3.22;;;;;;;;;;12885577;22;20103;-92
2023/06/12 06:40:14;;;;;;;8.15;3.15;;;;;;;;;;12886859;23;20480;-90
2023/06/12 06:45:18;;;;;;;4.95;2.63;;;;;;;;;;12884850;22;20024;-90
2023/06/12 06:50:21;;;;;;;4.72;2.42;;;;;;;;;;12884184;23;20028;-93
2023/06/12 06:55:27;;;;;;;4.03;3.03;;;;;;;;;;12886851;22;20486;-91
2023/06/12 07:00:33;;;;;;;8.27;4.10;;;;;;;;;;12886232;23;20341;-91
2023/06/12 07:05:36;;;;;;;4.32;2.92;;;;;;;;;;12886106;22;20405;-90
2023/06/12 07:10:41;;;;;;;3.00;1.98;;;;;;;;;;12885978;23;20337;-90
2023/06/12 07:15:47;;;;;;;2.30;2.10;;;;;;;;;;12908358;22;20078;-90
2023/06/12 07:20:52;;;;;;;3.22;1.88;;;;;;;;;;12885695;23;20365;-89
2023/06/12 07:25:57;;;;;;;2.33;1.58;;;;;;;;;;12884938;22;20055;-91
2023/06/12 07:31:03;;;;;;;3.45;1.60;;;;;;;;;;12909214;23;20024;-90
2023/06/12 07:36:07;;;;;;;2.15;1.70;;;;;;;;;;12883262;22;20036;-90
2023/06/12 07:41:12;;;;;;;2.58;1.52;;;;;;;;;;12884125;23;20024;-91
2023/06/12 07:46:16;;;;;;;3.00;2.00;;;;;;;;;;12909026;22;20648;-89
2023/06/12 07:51:21;;;;;;;1.65;1.50;;;;;;;;;;12883987;23;20030;-90
2023/06/12 07:56:27;;;;;;;1.80;1.48;;;;;;;;;;12883327;22;20031;-89
2023/06/12 08:01:34;;;;;;;1.98;1.77;;;;;;;;;;12883999;23;20035;-90
2023/06/12 08:06:40;;;;;;;;;;;;;;;;;;12884364;22;20031;-90
2023/06/12 08:11:45;;;;;;;2.17;1.70;;;;;;;;;;12883896;23;20331;-90
2023/06/12 08:16:50;;;;;;;;;;;;;;;;;;12884676;22;20827;-90
2023/06/12 08:21:55;;;;;;;1.50;1.33;;;;;;;;;;12917158;23;19942;-91
2023/06/12 08:27:00;;;;;;;1.70;1.42;;;;;;;;;;12890677;22;20036;-90
2023/06/12 08:32:06;;;;;;;1.67;1.58;;;;;;;;;;12885485;22;20013;-81
2023/06/12 08:37:10;;;;;;;2.22;1.90;;;;;;;;;;12855565;23;20028;-81
2023/06/12 08:42:17;;;;;;;2.10;1.73;;;;;;;;;;12929196;23;20046;-82
2023/06/12 08:47:21;;;;;;;2.30;2.10;;;;;;;;;;12887893;23;20028;-82
2023/06/12 08:52:26;;;;;;;3.00;2.17;;;;;;;;;;12892142;23;20082;-81
2023/06/12 08:57:31;;;;;;;2.03;1.67;;;;;;;;;;12919709;22;20490;-83
2023/06/12 09:02:34;;;;;;;1.73;1.63;;;;;;;;;;12889137;23;20020;-83
2023/06/12 09:07:40;;;;;;;1.83;1.73;;;;;;;;;;12914865;22;20028;-83
2023/06/12 09:12:45;;;;;;;;;;;;;;;;;;12929304;23;20027;-82
2023/06/12 09:17:48;;;;;;;1.90;1.50;;;;;;;;;;12916270;22;20634;-83
2023/06/12 09:22:52;;;;;;;2.35;2.00;;;;;;;;;;12933817;23;20263;-81
2023/06/12 09:27:57;;;;;;;2.67;2.17;;;;;;;;;;12896084;23;20020;-82
2023/06/12 09:33:01;;;;;;;2.47;1.95;;;;;;;;;;12913561;23;20031;-82
2023/06/12 09:38:07;;;;;;;2.35;2.03;;;;;;;;;;12878582;23;20023;-82
2023/06/12 09:43:18;;;;;;;2.55;2.15;;;;;;;;;;12879381;23;20027;-82
2023/06/12 09:48:21;;;;;;;3.05;2.50;;;;;;;;;;12877072;23;20471;-82
2023/06/12 09:53:25;;;;;;;2.17;1.98;;;;;;;;;;12912992;23;20044;-81
2023/06/12 09:58:30;;;;;;;1.70;1.60;;;;;;;;;;12864908;22;20058;-82
2023/06/12 10:03:37;;;;;;;2.25;2.05;;;;;;;;;;12877839;23;20452;-82
2023/06/12 10:08:41;;;;;;;2.28;2.05;;;;;;;;;;12910662;22;20040;-82
2023/06/12 10:13:46;;;;;;;3.10;2.20;;;;;;;;;;12878321;23;20479;-82
2023/06/12 10:18:50;;;;;;;;;;;;;;;;;;12904159;22;20525;-82
2023/06/12 10:23:56;;;;;;;1.67;1.55;;;;;;;;;;12879437;23;19919;-82
2023/06/12 10:29:00;;;;;;;3.38;1.60;;;;;;;;;;12909256;22;20470;-82
2023/06/12 10:34:10;;;;;;;2.30;2.10;;;;;;;;;;12877777;23;20359;-82
2023/06/12 10:39:17;;;;;;;2.45;2.10;;;;;;;;;;12877331;23;20028;-82
2023/06/12 10:44:39;;;;;;;2.05;1.67;;;;;;;;;;12877505;22;20039;-82
2023/06/12 10:50:00;;;;;;;1.77;1.67;;;;;;;;;;12877722;23;20076;-82
2023/06/12 10:55:31;;;;;;;2.40;1.73;;;;;;;;;;12904223;22;20023;-81
2023/06/12 11:00:37;;;;;;;2.55;2.15;;;;;;;;;;12877751;23;20024;-82
2023/06/12 11:05:45;;;;;;;1.83;1.73;;;;;;;;;;12877600;22;20020;-81
2023/06/12 11:10:49;;;;;;;2.25;2.05;;;;;;;;;;12878025;23;20016;-82
2023/06/12 11:15:54;;;;;;;2.40;2.20;;;;;;;;;;12903173;22;20020;-81
2023/06/12 11:20:58;;;;;;;2.22;2.03;;;;;;;;;;12902494;23;20074;-82
2023/06/12 11:26:07;;;;;;;1.92;1.60;;;;;;;;;;12921423;22;20024;-82
2023/06/12 11:31:12;;;;;;;2.42;2.03;;;;;;;;;;12878503;23;20035;-82
2023/06/12 11:36:16;;;;;;;1.92;1.67;;;;;;;;;;12919781;22;20055;-82
2023/06/12 11:41:19;;;;;;;2.13;1.92;;;;;;;;;;12905414;23;20051;-82
2023/06/12 11:46:25;;;;;;;2.10;1.90;;;;;;;;;;12920300;22;20016;-81
2023/06/12 11:51:28;;;;;;;2.75;2.10;;;;;;;;;;12904635;23;20016;-82
2023/06/12 11:56:33;;;;;;;2.15;1.80;;;;;;;;;;12901926;22;20028;-82
2023/06/12 12:01:45;;;;;;;2.28;2.08;;;;;;;;;;12876332;23;20082;-83
2023/06/12 12:06:49;;;;;;;3.13;2.20;;;;;;;;;;12874928;22;20031;-82
2023/06/12 12:11:52;;;;;;;3.75;2.75;;;;;;;;;;12876165;23;20120;-82
2023/06/12 12:17:04;;;;;;;2.70;2.50;;;;;;;;;;12914891;22;20028;-82
2023/06/12 12:22:10;;;;;;;2.63;2.40;;;;;;;;;;12875713;23;20517;-82
2023/06/12 12:27:14;;;;;;;2.30;2.08;;;;;;;;;;12875041;22;20055;-82
2023/06/12 12:32:19;;;;;;;2.47;2.27;;;;;;;;;;12875184;23;20574;-82
2023/06/12 12:37:22;;;;;;;2.30;2.10;;;;;;;;;;12876589;23;20020;-82
2023/06/12 12:42:26;;;;;;;2.50;2.30;;;;;;;;;;12887125;23;20017;-82
2023/06/12 12:47:34;;;;;;;2.30;2.10;;;;;;;;;;12887587;23;20112;-82
2023/06/12 12:52:39;;;;;;;3.13;2.65;;;;;;;;;;12886752;23;20020;-82
2023/06/12 12:57:43;;;;;;;3.40;2.78;;;;;;;;;;12905987;22;20041;-82
2023/06/12 13:02:52;;;;;;;2.95;2.58;;;;;;;;;;12883124;23;20355;-82
2023/06/12 13:07:56;;;;;;;2.45;2.17;;;;;;;;;;12881912;23;20092;-82
2023/06/12 13:13:00;;;;;;;2.20;2.00;;;;;;;;;;12878719;23;20349;-82
2023/06/12 13:18:04;;;;;;;2.85;2.50;;;;;;;;;;12877795;23;20099;-81
2023/06/12 13:23:07;;;;;;;;;;;;;;;;;;12904351;23;20086;-82
2023/06/12 13:28:11;;;;;;;2.35;2.15;;;;;;;;;;12902781;22;20168;-82
2023/06/12 13:33:16;;;;;;;2.70;2.50;;;;;;;;;;12877418;23;20044;-82
2023/06/12 13:38:19;;;;;;;;;;;;;;;;;;12878556;23;20035;-82
2023/06/12 13:43:22;;;;;;;4.60;2.28;;;;;;;;;;12905115;23;19943;-83
2023/06/12 13:48:27;;;;;;;2.70;2.40;;;;;;;;;;12877905;23;20024;-82
2023/06/12 13:53:30;;;;;;;3.55;2.17;;;;;;;;;;12912093;23;20040;-82
2023/06/12 13:58:34;;;;;;;3.40;3.10;;;;;;;;;;12876649;23;20062;-83
2023/06/12 14:03:38;;;;;;;5.15;3.10;;;;;;;;;;12877754;23;20023;-82
2023/06/12 14:08:41;;;;;;;;;;;;;;;;;;12911513;22;20043;-82
2023/06/12 14:13:45;;;;;;;4.32;2.13;;;;;;;;;;12910303;23;19915;-82
2023/06/12 14:18:51;;;;;;;3.72;2.88;;;;;;;;;;12876773;23;20047;-82
2023/06/12 14:23:54;;;;;;;3.42;2.53;;;;;;;;;;12904804;23;20028;-82
2023/06/12 14:28:58;;;;;;;2.92;2.47;;;;;;;;;;12901370;22;20103;-82
2023/06/12 15:51:18;;;;;;;3.17;2.40;;;;;;;;;;12800970;23;20024;-86
2023/06/12 15:56:22;;;;;;;2.88;2.63;;;;;;;;;;12888597;23;20020;-89
2023/06/12 16:01:26;;;;;;;2.85;2.55;;;;;;;;;;12884685;23;20028;-89
2023/06/12 16:06:31;;;;;;;3.83;3.00;;;;;;;;;;12883884;22;20647;-89
2023/06/12 16:11:35;;;;;;;3.58;2.90;;;;;;;;;;12884270;23;20085;-88
2023/06/12 16:16:38;;;;;;;3.10;2.70;;;;;;;;;;12882735;22;20109;-89
2023/06/12 16:21:43;;;;;;;3.28;2.50;;;;;;;;;;12881454;23;20046;-90
2023/06/12 16:26:47;;;;;;;2.75;2.08;;;;;;;;;;12883522;22;20094;-88
2023/06/12 16:31:51;;;;;;;4.95;2.83;;;;;;;;;;12883589;23;20028;-91
2023/06/12 16:36:56;;;;;;;2.33;1.90;;;;;;;;;;12883873;22;20047;-89
2023/06/12 16:41:59;;;;;;;2.15;1.95;;;;;;;;;;12914608;23;20043;-90
2023/06/12 16:47:03;;;;;;;2.50;1.83;;;;;;;;;;12913972;22;20028;-88
2023/06/12 16:52:08;;;;;;;3.55;1.83;;;;;;;;;;12886965;23;20028;-89
2023/06/12 16:57:12;;;;;;;2.05;1.77;;;;;;;;;;12885761;22;20028;-89
2023/06/12 17:02:17;;;;;;;1.95;1.77;;;;;;;;;;12913541;23;20399;-89
2023/06/12 17:07:22;;;;;;;2.35;2.15;;;;;;;;;;12885827;22;20032;-90
2023/06/12 17:12:25;;;;;;;3.40;2.00;;;;;;;;;;12886046;23;20032;-88
2023/06/12 17:17:29;;;;;;;2.28;1.98;;;;;;;;;;12877421;23;20031;-87
2023/06/12 17:22:33;;;;;;;2.45;2.25;;;;;;;;;;12905108;23;20051;-86
2023/06/12 17:27:37;;;;;;;3.90;2.10;;;;;;;;;;12877790;23;20028;-87
2023/06/12 17:32:40;;;;;;;4.32;1.60;;;;;;;;;;12905629;23;20020;-87
2023/06/12 17:37:45;;;;;;;2.20;1.80;;;;;;;;;;12878170;23;20016;-87
2023/06/12 17:42:48;;;;;;;2.60;1.73;;;;;;;;;;12878719;23;20067;-88
2023/06/12 17:47:55;;;;;;;2.10;1.67;;;;;;;;;;12902097;22;20525;-87
2023/06/12 17:52:59;;;;;;;3.33;1.52;;;;;;;;;;12905694;23;20435;-88
2023/06/12 17:58:03;;;;;;;2.47;1.30;;;;;;;;;;12878348;23;20024;-88
2023/06/12 18:03:07;;;;;;;1.65;1.48;;;;;;;;;;12905575;23;20028;-87
2023/06/12 18:08:12;;;;;;;2.08;1.60;;;;;;;;;;12878127;23;20023;-88
2023/06/12 18:13:16;;;;;;;;;;;;;;;;;;12906068;23;20103;-88
2023/06/12 18:18:20;;;;;;;1.55;1.40;;;;;;;;;;12878621;23;19923;-87
2023/06/12 18:23:25;;;;;;;3.30;1.57;;;;;;;;;;12875572;23;20024;-89
2023/06/12 18:28:32;;;;;;;1.67;1.58;;;;;;;;;;12904169;22;20020;-89
2023/06/12 18:33:35;;;;;;;2.35;1.70;;;;;;;;;;12905188;23;20028;-88
2023/06/12 18:38:40;;;;;;;2.08;1.67;;;;;;;;;;12879103;23;20026;-89
2023/06/12 18:43:44;;;;;;;1.63;1.52;;;;;;;;;;12879575;23;20016;-88
2023/06/12 18:48:47;;;;;;;2.20;1.90;;;;;;;;;;12904747;22;20032;-88
2023/06/12 18:53:52;;;;;;;2.55;1.83;;;;;;;;;;12879600;23;20078;-88
2023/06/12 18:58:55;;;;;;;2.15;1.88;;;;;;;;;;12905799;22;20028;-89
2023/06/12 19:03:59;;;;;;;2.20;1.85;;;;;;;;;;12906726;23;20028;-89
2023/06/12 19:09:04;;;;;;;1.90;1.80;;;;;;;;;;12879860;23;20031;-88
2023/06/12 19:14:07;;;;;;;2.35;1.98;;;;;;;;;;12906551;23;20030;-89
2023/06/12 19:19:11;;;;;;;3.15;1.90;;;;;;;;;;12879302;23;20456;-88
2023/06/12 19:24:16;;;;;;;2.53;1.88;;;;;;;;;;12879985;23;20023;-87
2023/06/12 19:29:20;;;;;;;1.90;1.70;;;;;;;;;;12879516;23;20028;-88
2023/06/12 19:34:23;;;;;;;3.15;1.90;;;;;;;;;;12879995;23;20452;-89
2023/06/12 19:39:29;;;;;;;2.25;1.80;;;;;;;;;;12879406;23;20512;-89
2023/06/12 19:44:32;;;;;;;;;;;;;;;;;;12907555;22;20028;-89
2023/06/12 19:49:36;;;;;;;2.38;1.80;;;;;;;;;;12879167;23;19916;-89
2023/06/12 19:54:41;;;;;;;2.13;1.67;;;;;;;;;;12879739;22;20027;-89
2023/06/12 19:59:45;;;;;;;3.10;1.83;;;;;;;;;;12879471;23;20020;-92
2023/06/12 20:04:48;;;;;;;2.13;1.92;;;;;;;;;;12913491;22;20042;-90
2023/06/12 20:09:53;;;;;;;2.75;1.77;;;;;;;;;;12890050;23;20038;-89
2023/06/12 20:14:57;;;;;;;2.67;2.20;;;;;;;;;;12908448;22;20024;-89
2023/06/12 20:20:01;;;;;;;2.60;2.13;;;;;;;;;;12879954;23;20024;-89
2023/06/12 20:25:07;;;;;;;2.42;1.75;;;;;;;;;;12880092;22;20024;-88
2023/06/12 20:30:18;;;;;;;3.88;2.28;;;;;;;;;;12881928;23;20521;-90
2023/06/12 20:35:22;;;;;;;2.90;1.80;;;;;;;;;;12840282;23;20498;-84
2023/06/12 20:40:26;;;;;;;1.90;1.55;;;;;;;;;;12875572;23;20159;-84
2023/06/12 20:45:30;;;;;;;3.08;1.90;;;;;;;;;;12876088;22;20618;-83
2023/06/12 20:50:33;;;;;;;2.25;1.92;;;;;;;;;;12926189;23;20024;-83
2023/06/12 20:55:38;;;;;;;5.35;2.20;;;;;;;;;;12878856;22;20020;-83
2023/06/12 21:00:41;;;;;;;2.22;1.95;;;;;;;;;;12879490;23;20035;-83
2023/06/12 21:05:44;;;;;;;2.17;1.98;;;;;;;;;;12879299;22;20075;-83
2023/06/12 21:10:49;;;;;;;3.55;2.13;;;;;;;;;;12905342;23;20089;-83
2023/06/12 21:15:53;;;;;;;3.25;2.10;;;;;;;;;;12879552;22;20031;-83
2023/06/12 21:20:56;;;;;;;3.80;2.00;;;;;;;;;;12881064;23;20393;-83
2023/06/12 21:26:01;;;;;;;2.03;1.83;;;;;;;;;;12882269;22;20016;-83
2023/06/12 21:31:04;;;;;;;2.38;2.13;;;;;;;;;;12909682;23;20020;-83
2023/06/12 21:36:08;;;;;;;2.70;2.28;;;;;;;;;;12926763;22;20345;-83
2023/06/12 21:41:12;;;;;;;2.70;2.42;;;;;;;;;;12910681;23;20503;-83
2023/06/12 21:46:16;;;;;;;4.05;2.10;;;;;;;;;;12882498;22;20024;-83
2023/06/12 21:51:19;;;;;;;3.25;2.38;;;;;;;;;;12881934;23;20032;-83
2023/06/12 21:56:24;;;;;;;2.90;2.10;;;;;;;;;;12882730;22;20024;-83
2023/06/12 22:01:28;;;;;;;2.72;2.35;;;;;;;;;;12926164;23;20475;-83
2023/06/12 22:06:32;;;;;;;3.08;2.08;;;;;;;;;;12881874;22;20024;-83
2023/06/12 22:11:37;;;;;;;2.97;2.50;;;;;;;;;;12883686;23;20051;-83
2023/06/12 22:16:40;;;;;;;3.05;2.30;;;;;;;;;;12882293;22;20078;-83
2023/06/12 22:21:43;;;;;;;3.25;2.45;;;;;;;;;;12884374;23;20112;-82
2023/06/12 22:26:49;;;;;;;3.53;2.47;;;;;;;;;;12881869;22;20380;-82
2023/06/12 22:31:53;;;;;;;;;;;;;;;;;;12884432;23;20043;-83
2023/06/12 22:36:56;;;;;;;2.45;2.22;;;;;;;;;;12922238;22;19938;-82
2023/06/12 22:42:01;;;;;;;2.10;1.67;;;;;;;;;;12924724;23;20051;-83
2023/06/12 22:47:04;;;;;;;3.47;2.13;;;;;;;;;;12883664;22;20406;-83
2023/06/12 22:52:10;;;;;;;2.13;1.90;;;;;;;;;;12885360;23;20044;-82
2023/06/12 22:57:15;;;;;;;3.40;2.30;;;;;;;;;;12883098;22;20024;-83
2023/06/12 23:02:18;;;;;;;2.65;2.10;;;;;;;;;;12885829;23;20035;-82
2023/06/12 23:07:21;;;;;;;3.38;2.28;;;;;;;;;;12885192;22;20024;-82
2023/06/12 23:12:26;;;;;;;2.50;2.00;;;;;;;;;;12884795;23;20490;-82
2023/06/12 23:17:30;;;;;;;2.58;2.20;;;;;;;;;;12883363;23;20035;-82
2023/06/12 23:22:35;;;;;;;2.60;2.40;;;;;;;;;;12885560;23;20515;-82
2023/06/12 23:27:40;;;;;;;2.55;2.05;;;;;;;;;;12884414;23;20039;-83
2023/06/12 23:32:43;;;;;;;2.03;1.90;;;;;;;;;;12885957;23;20063;-82
2023/06/12 23:37:47;;;;;;;3.53;2.38;;;;;;;;;;12884241;23;20020;-82
2023/06/12 23:42:53;;;;;;;2.38;2.03;;;;;;;;;;12884955;23;20020;-82
2023/06/12 23:47:56;;;;;;;2.83;2.50;;;;;;;;;;12921611;22;20024;-82
2023/06/12 23:53:03;;;;;;;4.55;2.10;;;;;;;;;;12885060;23;20078;-82
2023/06/12 23:58:08;;;;;;;2.50;2.10;;;;;;;;;;12921345;22;20055;-82
